Time;durP1;ratioP1;P1;durP2;ratioP2;P2;SDS_P1;SDS_P2;PMS_P1;PMS_P2;Temp;Humidity;BMP_temperature;BMP_pressure;BME280_temperature;BME280_humidity;BME280_pressure;Samples;Min_cycle;Max_cycle;Signal;HPM_P1;HPM_P2
2022/01/06 00:01:25;;;;;;;5.80;0.73;;;3.90;99.90;;;;;;5058373;28;20080;-78
2022/01/06 00:03:52;;;;;;;6.90;1.05;;;3.90;99.90;;;;;;5057647;28;20018;-78
2022/01/06 00:06:18;;;;;;;14.05;2.65;;;3.90;99.90;;;;;;5056350;28;20370;-78
2022/01/06 00:08:44;;;;;;;8.50;1.48;;;3.70;99.90;;;;;;5056557;28;20049;-78
2022/01/06 00:11:11;;;;;;;15.02;1.38;;;3.80;99.90;;;;;;5058097;28;20017;-78
2022/01/06 00:24:26;;;;;;;9.95;1.70;;;3.80;99.90;;;;;;5057145;28;20184;-78
2022/01/06 00:26:51;;;;;;;9.98;1.70;;;3.80;99.90;;;;;;5056317;28;20025;-78
2022/01/06 00:29:18;;;;;;;12.95;2.58;;;3.70;99.90;;;;;;5056522;28;20021;-78
2022/01/06 00:31:44;;;;;;;17.25;2.67;;;3.60;99.90;;;;;;5058560;28;20023;-78
2022/01/06 00:34:12;;;;;;;10.80;1.30;;;3.60;99.90;;;;;;5056799;28;20112;-78
2022/01/06 00:36:41;;;;;;;24.73;1.83;;;3.50;99.90;;;;;;5041804;28;20036;-78
2022/01/06 00:39:09;;;;;;;13.18;2.10;;;3.60;99.90;;;;;;5058001;28;20051;-77
2022/01/06 00:41:36;;;;;;;18.08;2.88;;;3.60;99.90;;;;;;5058229;28;20025;-78
2022/01/06 00:44:04;;;;;;;11.05;2.03;;;3.60;99.90;;;;;;5058163;28;20051;-78
2022/01/06 00:46:29;;;;;;;8.73;1.40;;;3.60;99.90;;;;;;5057896;28;20044;-78
2022/01/06 00:48:55;;;;;;;15.40;2.17;;;3.80;99.90;;;;;;5057701;28;20021;-78
2022/01/06 00:51:21;;;;;;;9.93;1.13;;;3.80;99.90;;;;;;5056359;28;20029;-78
2022/01/06 00:53:46;;;;;;;7.80;1.08;;;3.90;99.90;;;;;;5057638;28;20396;-78
2022/01/06 00:56:12;;;;;;;13.38;2.17;;;3.90;99.90;;;;;;5057738;28;20021;-78
2022/01/06 00:58:38;;;;;;;16.02;2.13;;;3.90;99.90;;;;;;5056116;28;20033;-78
2022/01/06 01:01:03;;;;;;;16.42;1.75;;;3.90;99.90;;;;;;5056274;28;20366;-77
2022/01/06 01:03:29;;;;;;;7.72;1.40;;;3.90;99.90;;;;;;5056675;28;20078;-77
2022/01/06 01:05:56;;;;;;;12.60;1.95;;;3.90;99.90;;;;;;5056180;28;20029;-78
2022/01/06 01:08:26;;;;;;;12.38;1.73;;;3.90;99.90;;;;;;5056740;28;20049;-77
2022/01/06 01:10:55;;;;;;;16.23;2.28;;;3.90;99.90;;;;;;5056373;28;20148;-78
2022/01/06 01:13:29;;;;;;;13.63;2.85;;;3.80;99.90;;;;;;5057834;28;20112;-78
2022/01/06 01:15:59;;;;;;;4.03;0.60;;;3.80;99.90;;;;;;5056887;28;20476;-78
2022/01/06 01:18:25;;;;;;;11.73;1.73;;;3.80;99.90;;;;;;5058106;28;20033;-78
2022/01/06 01:20:52;;;;;;;13.18;1.88;;;3.70;99.90;;;;;;5057600;28;20074;-78
2022/01/06 01:23:23;;;;;;;11.68;2.05;;;3.70;99.90;;;;;;5057314;28;20033;-79
2022/01/06 01:25:49;;;;;;;6.93;1.17;;;3.70;99.90;;;;;;5058202;28;20029;-78
2022/01/06 01:28:15;;;;;;;18.27;1.45;;;3.60;99.90;;;;;;5056874;28;20039;-78
2022/01/06 01:30:54;;;;;;;12.20;1.60;;;3.70;99.90;;;;;;5057644;28;20475;-78
2022/01/06 01:33:20;;;;;;;9.35;1.67;;;3.80;99.90;;;;;;5057305;28;20029;-78
2022/01/06 01:35:46;;;;;;;12.27;1.60;;;3.90;99.90;;;;;;5054039;28;20329;-79
2022/01/06 01:38:12;;;;;;;14.27;2.22;;;3.90;99.90;;;;;;5046142;28;20100;-78
2022/01/06 01:40:38;;;;;;;18.75;2.53;;;4.10;99.90;;;;;;5046776;28;20025;-78
2022/01/06 01:43:04;;;;;;;12.05;1.05;;;4.10;99.90;;;;;;5045726;28;20029;-78
2022/01/06 01:45:33;;;;;;;10.40;1.65;;;4.30;99.90;;;;;;5057267;28;20025;-78
2022/01/06 01:48:03;;;;;;;12.23;2.20;;;4.50;99.90;;;;;;5058850;28;20502;-78
2022/01/06 01:50:29;;;;;;;10.15;1.75;;;4.60;99.90;;;;;;5057529;28;20021;-78
2022/01/06 01:52:57;;;;;;;8.30;1.50;;;4.70;99.90;;;;;;5057169;28;20047;-78
2022/01/06 01:55:29;;;;;;;5.88;0.95;;;4.80;99.90;;;;;;5055459;28;20021;-78
2022/01/06 01:57:56;;;;;;;2.92;0.65;;;4.70;99.90;;;;;;5055363;28;20041;-78
2022/01/06 02:00:27;;;;;;;11.02;1.25;;;4.60;99.90;;;;;;5057207;28;20021;-78
2022/01/06 02:02:53;;;;;;;13.23;1.73;;;4.50;99.90;;;;;;5056183;28;20166;-78
2022/01/06 02:05:25;;;;;;;10.23;1.40;;;4.30;99.90;;;;;;5055503;28;20049;-78
2022/01/06 02:07:51;;;;;;;19.58;2.50;;;4.20;99.90;;;;;;5056803;28;20059;-78
2022/01/06 02:10:18;;;;;;;7.50;1.25;;;4.10;99.90;;;;;;5056824;28;20021;-78
2022/01/06 02:12:44;;;;;;;11.82;1.20;;;4.20;99.90;;;;;;5057424;28;20022;-79
2022/01/06 02:15:11;;;;;;;7.22;0.95;;;4.30;99.90;;;;;;5057563;28;20361;-78
2022/01/06 02:17:38;;;;;;;14.75;2.55;;;4.30;99.90;;;;;;5057097;28;20108;-78
2022/01/06 02:20:13;;;;;;;7.28;1.48;;;4.60;99.90;;;;;;5057702;28;20024;-78
2022/01/06 02:22:39;;;;;;;9.10;1.30;;;4.60;99.90;;;;;;5057236;28;20083;-78
2022/01/06 02:25:14;;;;;;;13.80;0.88;;;4.40;99.90;;;;;;5057692;28;20029;-78
2022/01/06 02:27:43;;;;;;;11.10;1.70;;;4.30;99.90;;;;;;5055812;28;20082;-79
2022/01/06 02:30:10;;;;;;;8.52;1.02;;;4.30;99.90;;;;;;5057214;28;20025;-78
2022/01/06 02:32:36;;;;;;;3.55;0.73;;;4.20;99.90;;;;;;5056205;28;20029;-78
2022/01/06 02:35:14;;;;;;;8.10;1.20;;;3.90;99.90;;;;;;5055617;28;20021;-78
2022/01/06 02:37:39;;;;;;;11.18;1.67;;;3.70;99.90;;;;;;5057547;28;20025;-78
2022/01/06 02:40:11;;;;;;;11.00;1.38;;;3.50;99.90;;;;;;5056049;28;20112;-78
2022/01/06 02:42:42;;;;;;;11.02;1.95;;;3.30;99.90;;;;;;5058415;28;20372;-78
2022/01/06 02:45:08;;;;;;;14.60;1.45;;;3.10;99.90;;;;;;5057922;28;20017;-78
2022/01/06 02:47:34;;;;;;;16.05;1.40;;;3.10;99.90;;;;;;5057306;28;20025;-78
2022/01/06 02:50:00;;;;;;;11.77;1.40;;;3.00;99.90;;;;;;5060806;28;20480;-78
2022/01/06 02:52:25;;;;;;;16.35;1.25;;;3.00;99.90;;;;;;5061152;28;20021;-78
2022/01/06 02:54:51;;;;;;;13.93;2.03;;;2.90;99.90;;;;;;5060730;28;20046;-78
2022/01/06 02:58:00;;;;;;;8.52;0.93;;;2.90;99.90;;;;;;5060612;28;20033;-77
2022/01/06 03:00:26;;;;;;;13.75;1.85;;;2.80;99.90;;;;;;5060284;28;20043;-78
2022/01/06 03:02:52;;;;;;;11.80;2.03;;;2.70;99.90;;;;;;5059850;28;20025;-78
2022/01/06 03:05:17;;;;;;;12.20;1.80;;;2.70;99.90;;;;;;5058390;28;20021;-78
2022/01/06 03:07:44;;;;;;;13.95;1.98;;;3.00;99.90;;;;;;5059675;28;20045;-79
2022/01/06 03:17:19;;;;;;;13.55;1.65;;;3.00;99.90;;;;;;5039861;28;20036;-78
2022/01/06 03:19:45;;;;;;;14.82;1.88;;;2.80;99.90;;;;;;5038873;28;20063;-79
2022/01/06 03:22:10;;;;;;;12.23;2.10;;;2.80;99.90;;;;;;5037812;28;20057;-78
2022/01/06 03:24:36;;;;;;;7.88;2.40;;;2.60;99.90;;;;;;5039001;28;20021;-79
2022/01/06 03:27:02;;;;;;;11.07;1.88;;;2.50;99.90;;;;;;5037805;28;20025;-79
2022/01/06 03:29:27;;;;;;;15.88;2.40;;;2.40;99.90;;;;;;5037725;28;20528;-78
2022/01/06 03:31:53;;;;;;;12.10;1.23;;;2.30;99.90;;;;;;5038039;28;20032;-78
2022/01/06 03:34:19;;;;;;;10.82;1.77;;;2.20;99.90;;;;;;5039493;28;20049;-78
2022/01/06 03:36:44;;;;;;;10.75;2.17;;;2.10;99.90;;;;;;5040232;28;20092;-78
2022/01/06 03:39:10;;;;;;;13.85;1.63;;;2.10;99.90;;;;;;5038275;28;20041;-78
2022/01/06 03:41:36;;;;;;;12.30;2.25;;;2.10;99.90;;;;;;5038748;28;20056;-78
2022/01/06 03:44:01;;;;;;;20.15;2.10;;;2.20;99.90;;;;;;5038971;28;20022;-79
2022/01/06 03:46:27;;;;;;;8.10;1.10;;;2.20;99.90;;;;;;5038388;28;20089;-78
2022/01/06 03:48:53;;;;;;;10.07;1.63;;;2.20;99.90;;;;;;5054481;28;20479;-78
2022/01/06 03:51:20;;;;;;;10.02;1.67;;;2.20;99.90;;;;;;5058340;28;20045;-79
2022/01/06 03:53:47;;;;;;;9.63;1.55;;;2.10;99.90;;;;;;5058237;28;20021;-78
2022/01/06 03:56:13;;;;;;;17.08;1.90;;;2.00;99.90;;;;;;5059417;28;20033;-78
2022/01/06 03:58:40;;;;;;;10.35;1.98;;;1.90;99.90;;;;;;5059577;28;20041;-77
2022/01/06 04:01:06;;;;;;;20.38;1.88;;;1.80;99.90;;;;;;5060362;28;20053;-78
2022/01/06 04:03:32;;;;;;;11.55;1.67;;;1.80;99.90;;;;;;5057778;28;20393;-78
2022/01/06 04:05:57;;;;;;;17.15;2.30;;;1.80;99.90;;;;;;5059551;28;20021;-79
2022/01/06 04:08:23;;;;;;;15.82;2.28;;;1.70;99.90;;;;;;5059220;28;20060;-78
2022/01/06 04:10:48;;;;;;;13.35;1.67;;;1.50;99.90;;;;;;5058415;28;20025;-78
2022/01/06 04:13:14;;;;;;;15.77;1.35;;;1.50;99.90;;;;;;5059813;28;20079;-78
2022/01/06 04:15:40;;;;;;;7.20;1.42;;;1.30;99.90;;;;;;5060525;28;20110;-78
2022/01/06 04:18:05;;;;;;;5.85;1.27;;;1.10;99.90;;;;;;5060065;28;20035;-78
2022/01/06 04:20:31;;;;;;;7.25;1.40;;;0.90;1.00;;;;;;5059471;28;20041;-78
2022/01/06 04:22:57;;;;;;;7.03;1.20;;;0.80;1.00;;;;;;5058836;28;20032;-78
2022/01/06 04:25:22;;;;;;;11.20;1.80;;;0.70;1.00;;;;;;5060334;28;20032;-79
2022/01/06 04:27:48;;;;;;;8.15;1.50;;;0.70;1.00;;;;;;5058799;28;20388;-78
2022/01/06 04:30:14;;;;;;;5.18;1.13;;;0.60;1.00;;;;;;5060071;28;20062;-78
2022/01/06 04:32:40;;;;;;;10.77;1.25;;;0.50;16.10;;;;;;5060499;28;20029;-78
2022/01/06 04:35:07;;;;;;;4.13;1.20;;;0.50;71.00;;;;;;5059780;28;20112;-78
2022/01/06 04:37:33;;;;;;;8.23;1.38;;;0.40;99.90;;;;;;5059376;28;20526;-78
2022/01/06 04:39:59;;;;;;;10.48;1.90;;;0.30;99.90;;;;;;5059111;28;20040;-78
2022/01/06 04:42:25;;;;;;;9.60;1.75;;;0.30;99.90;;;;;;5058053;28;20017;-78
2022/01/06 04:44:50;;;;;;;8.40;1.20;;;0.40;99.90;;;;;;5059683;28;20107;-78
2022/01/06 04:47:16;;;;;;;7.93;1.23;;;0.20;99.90;;;;;;5058737;28;20059;-78
2022/01/06 04:49:41;;;;;;;12.70;2.00;;;0.20;99.90;;;;;;5059658;28;20032;-78
2022/01/06 04:52:07;;;;;;;27.75;3.42;;;0.20;99.90;;;;;;5059130;28;20599;-78
2022/01/06 04:54:33;;;;;;;18.98;2.03;;;0.10;99.90;;;;;;5060197;28;20021;-78
2022/01/06 04:56:58;;;;;;;6.63;0.93;;;0.10;99.90;;;;;;5056194;28;20017;-78
2022/01/06 04:59:24;;;;;;;6.20;1.88;;;0.00;99.90;;;;;;5041585;28;20038;-78
2022/01/06 05:01:49;;;;;;;13.75;1.70;;;-0.10;99.90;;;;;;5041766;28;20025;-78
2022/01/06 05:04:15;;;;;;;16.70;2.13;;;-0.10;99.90;;;;;;5041993;28;20025;-78
2022/01/06 05:06:41;;;;;;;16.48;2.13;;;-0.20;99.90;;;;;;5042290;28;20025;-78
2022/01/06 05:09:06;;;;;;;13.02;1.90;;;-0.20;99.90;;;;;;5061069;28;20045;-78
2022/01/06 05:11:32;;;;;;;7.63;1.48;;;-0.30;99.90;;;;;;5060678;28;20025;-78
2022/01/06 05:13:57;;;;;;;7.32;2.75;;;-0.30;99.90;;;;;;5062529;28;20025;-78
2022/01/06 05:16:23;;;;;;;13.70;2.03;;;-0.30;99.90;;;;;;5061362;28;20068;-78
2022/01/06 05:18:49;;;;;;;7.88;1.20;;;-0.40;99.90;;;;;;5062343;28;20029;-78
2022/01/06 05:21:15;;;;;;;8.60;1.25;;;-0.40;99.90;;;;;;5062500;28;20059;-78
2022/01/06 05:23:41;;;;;;;8.85;1.30;;;-0.50;99.90;;;;;;5060894;28;20041;-77
2022/01/06 05:26:07;;;;;;;12.10;1.27;;;-0.50;99.90;;;;;;5061125;28;20028;-78
2022/01/06 05:28:33;;;;;;;10.15;1.65;;;-0.40;99.90;;;;;;5061089;28;20029;-78
2022/01/06 05:30:59;;;;;;;17.95;1.92;;;-0.50;99.90;;;;;;5062535;28;20081;-78
2022/01/06 05:33:25;;;;;;;14.73;2.22;;;-0.60;99.90;;;;;;5062315;28;20449;-78
2022/01/06 05:35:51;;;;;;;9.23;1.60;;;-0.60;99.90;;;;;;5060990;28;20033;-78
2022/01/06 05:38:16;;;;;;;12.07;1.35;;;-0.60;99.90;;;;;;5062234;28;20037;-78
2022/01/06 05:40:42;;;;;;;6.72;1.15;;;-0.60;99.90;;;;;;5062459;28;20026;-78
2022/01/06 05:43:08;;;;;;;11.23;1.30;;;-0.60;99.90;;;;;;5062140;28;20032;-77
2022/01/06 05:45:33;;;;;;;10.95;2.10;;;-0.70;99.90;;;;;;5061103;28;20025;-78
2022/01/06 05:47:59;;;;;;;8.57;1.42;;;-0.50;99.90;;;;;;5061190;28;20378;-78
2022/01/06 05:50:26;;;;;;;15.38;1.65;;;-0.60;99.90;;;;;;5062173;28;20021;-77
2022/01/06 05:53:11;;;;;;;8.32;1.00;;;-0.70;99.90;;;;;;5060935;28;20082;-78
2022/01/06 05:55:36;;;;;;;15.65;1.50;;;-0.70;99.90;;;;;;5062387;28;20099;-78
2022/01/06 05:58:02;;;;;;;17.30;1.90;;;-0.60;99.90;;;;;;5062098;28;20045;-78
2022/01/06 06:00:28;;;;;;;11.20;2.63;;;-0.50;99.90;;;;;;5062597;28;20053;-77
2022/01/06 06:02:54;;;;;;;13.57;2.00;;;-0.60;99.90;;;;;;5062153;28;20029;-77
2022/01/06 06:05:19;;;;;;;12.20;1.55;;;-0.60;99.90;;;;;;5061923;28;20013;-78
2022/01/06 06:07:45;;;;;;;9.57;1.58;;;-0.60;99.90;;;;;;5061806;28;20045;-78
2022/01/06 06:10:10;;;;;;;12.38;1.75;;;-0.60;99.90;;;;;;5061994;28;20024;-78
2022/01/06 06:12:36;;;;;;;10.13;1.48;;;-0.60;99.90;;;;;;5062161;28;20028;-78
2022/01/06 06:15:02;;;;;;;17.13;1.88;;;-0.50;99.90;;;;;;5062047;28;20028;-78
2022/01/06 06:17:28;;;;;;;22.92;3.03;;;-0.50;99.90;;;;;;5060820;28;20021;-78
2022/01/06 06:19:53;;;;;;;11.52;1.23;;;-0.50;99.90;;;;;;5061515;28;20033;-78
2022/01/06 06:22:19;;;;;;;11.20;1.50;;;-0.60;99.90;;;;;;5062545;28;20052;-78
2022/01/06 06:24:45;;;;;;;9.57;1.60;;;-0.60;99.90;;;;;;5066002;28;20024;-77
2022/01/06 06:27:11;;;;;;;15.82;1.90;;;-0.60;99.90;;;;;;5065688;28;20025;-78
2022/01/06 06:29:37;;;;;;;13.27;1.80;;;-0.70;99.90;;;;;;5065885;28;20029;-78
2022/01/06 06:32:03;;;;;;;10.00;1.60;;;-0.70;99.90;;;;;;5065650;28;20082;-76
2022/01/06 06:34:29;;;;;;;16.52;1.88;;;-0.60;99.90;;;;;;5065707;28;20495;-78
2022/01/06 06:36:54;;;;;;;7.97;1.38;;;-0.50;99.90;;;;;;5065534;28;20501;-77
2022/01/06 06:39:20;;;;;;;12.15;2.47;;;-0.60;99.90;;;;;;5064505;28;20037;-78
2022/01/06 06:41:46;;;;;;;12.10;1.45;;;-0.50;99.90;;;;;;5065535;28;20049;-77
2022/01/06 06:44:11;;;;;;;7.78;1.40;;;-0.60;99.90;;;;;;5064140;28;20013;-77
2022/01/06 06:46:37;;;;;;;13.88;1.65;;;-0.60;99.90;;;;;;5059434;28;20540;-78
2022/01/06 06:49:03;;;;;;;13.02;1.77;;;-0.60;99.90;;;;;;5056543;28;20021;-78
2022/01/06 06:51:28;;;;;;;14.20;1.50;;;-0.40;99.90;;;;;;5056742;28;20460;-78
2022/01/06 06:53:54;;;;;;;9.30;1.52;;;-0.60;99.90;;;;;;5055265;28;20488;-78
2022/01/06 06:56:20;;;;;;;16.02;2.15;;;-0.60;99.90;;;;;;5055324;28;20067;-78
2022/01/06 06:58:45;;;;;;;9.98;1.75;;;-0.60;99.90;;;;;;5056367;28;20029;-78
2022/01/06 07:01:11;;;;;;;16.90;1.98;;;-0.60;99.90;;;;;;5056329;28;20434;-78
2022/01/06 07:03:37;;;;;;;9.07;1.13;;;-0.60;99.90;;;;;;5056165;28;20492;-78
2022/01/06 07:06:02;;;;;;;11.73;1.70;;;-0.60;99.90;;;;;;5056124;28;20021;-78
2022/01/06 07:08:28;;;;;;;16.23;2.15;;;-0.70;99.90;;;;;;5056435;28;20055;-78
2022/01/06 07:10:53;;;;;;;17.17;2.17;;;-0.50;99.90;;;;;;5056145;28;20021;-78
2022/01/06 07:13:20;;;;;;;18.23;1.95;;;-0.40;99.90;;;;;;5055952;28;20354;-78
2022/01/06 07:15:46;;;;;;;11.32;1.45;;;-0.40;99.90;;;;;;5035306;28;20025;-78
2022/01/06 07:18:12;;;;;;;10.02;1.70;;;-0.40;99.90;;;;;;5035398;28;20072;-78
2022/01/06 07:20:38;;;;;;;12.20;1.45;;;-0.50;99.90;;;;;;5037643;28;20017;-78
2022/01/06 07:23:05;;;;;;;17.02;2.55;;;-0.50;99.90;;;;;;5039843;28;20032;-78
2022/01/06 07:25:31;;;;;;;23.30;2.70;;;-0.40;99.90;;;;;;5040183;28;20025;-78
2022/01/06 07:27:56;;;;;;;13.52;2.53;;;-0.30;99.90;;;;;;5034716;28;20036;-78
2022/01/06 07:30:23;;;;;;;11.20;1.90;;;-0.20;99.90;;;;;;5038790;28;20056;-78
2022/01/06 07:32:51;;;;;;;14.70;2.55;;;-0.10;99.90;;;;;;5036858;28;20025;-78
2022/01/06 07:35:21;;;;;;;14.75;2.40;;;-0.10;99.90;;;;;;5043466;28;20079;-78
2022/01/06 07:37:48;;;;;;;17.58;3.53;;;-0.20;99.90;;;;;;5042303;28;20025;-78
2022/01/06 07:40:14;;;;;;;20.00;3.15;;;0.20;99.90;;;;;;5035519;28;20029;-78
2022/01/06 07:42:40;;;;;;;20.45;3.97;;;-0.20;99.90;;;;;;5048898;28;20060;-79
2022/01/06 07:45:06;;;;;;;16.95;3.15;;;-0.30;99.90;;;;;;5053815;28;20135;-78
2022/01/06 07:47:35;;;;;;;16.55;2.65;;;-0.40;99.90;;;;;;5052725;28;20021;-78
2022/01/06 07:50:00;;;;;;;15.35;2.03;;;-0.40;99.90;;;;;;5052811;28;20022;-78
2022/01/06 07:52:26;;;;;;;11.70;1.55;;;-0.40;99.90;;;;;;5052612;28;20041;-79
2022/01/06 07:54:51;;;;;;;10.95;2.08;;;-0.50;99.90;;;;;;5052189;28;20496;-78
2022/01/06 07:57:17;;;;;;;12.02;2.15;;;-0.40;99.90;;;;;;5052684;28;20082;-78
2022/01/06 07:59:43;;;;;;;12.73;1.95;;;-0.50;99.90;;;;;;5052381;28;20504;-79
2022/01/06 08:02:09;;;;;;;10.15;1.83;;;-0.60;99.90;;;;;;5052511;28;20057;-78
2022/01/06 08:04:35;;;;;;;10.45;1.88;;;-0.50;99.90;;;;;;5052361;28;20166;-78
2022/01/06 08:07:01;;;;;;;11.30;2.70;;;-0.60;99.90;;;;;;5052437;28;20153;-78
2022/01/06 08:09:27;;;;;;;15.13;4.03;;;-0.50;99.90;;;;;;5052289;28;20057;-78
2022/01/06 08:11:52;;;;;;;12.93;2.60;;;-0.40;99.90;;;;;;5052080;28;20665;-78
2022/01/06 08:14:18;;;;;;;7.90;2.38;;;-0.50;99.90;;;;;;5052254;28;20021;-78
2022/01/06 08:16:44;;;;;;;10.63;2.28;;;-0.40;99.90;;;;;;5052185;28;20025;-78
2022/01/06 08:19:09;;;;;;;13.40;2.53;;;-0.30;99.90;;;;;;5052196;28;20460;-78
2022/01/06 08:21:35;;;;;;;11.68;3.22;;;-0.30;99.90;;;;;;5053651;28;20733;-78
2022/01/06 08:24:01;;;;;;;17.20;2.83;;;-0.30;99.90;;;;;;5050937;28;20090;-78
2022/01/06 08:26:26;;;;;;;10.65;2.78;;;-0.20;99.90;;;;;;5040892;28;20104;-78
2022/01/06 08:28:52;;;;;;;9.00;2.33;;;-0.20;99.90;;;;;;5038866;28;20025;-78
2022/01/06 08:31:18;;;;;;;13.57;3.28;;;0.00;99.90;;;;;;5051870;28;20348;-78
2022/01/06 08:33:45;;;;;;;14.57;2.10;;;0.20;99.90;;;;;;5050547;28;20080;-78
2022/01/06 08:36:10;;;;;;;16.73;2.75;;;0.20;99.90;;;;;;5043682;28;20029;-78
2022/01/06 08:38:36;;;;;;;13.88;2.72;;;0.20;99.90;;;;;;5035879;28;20088;-78
2022/01/06 08:41:01;;;;;;;11.85;2.42;;;0.30;99.90;;;;;;5040103;28;20021;-78
2022/01/06 08:43:27;;;;;;;10.93;1.95;;;0.30;99.90;;;;;;5036192;28;20034;-78
2022/01/06 08:45:57;;;;;;;14.30;2.30;;;0.40;99.90;;;;;;5036733;28;20021;-79
2022/01/06 08:48:24;;;;;;;9.80;1.85;;;0.50;99.90;;;;;;5036444;28;20090;-78
2022/01/06 08:50:50;;;;;;;10.73;2.00;;;0.50;99.90;;;;;;5046560;28;20030;-78
2022/01/06 08:53:16;;;;;;;11.52;2.10;;;0.60;99.90;;;;;;5043378;28;20422;-78
2022/01/06 08:55:46;;;;;;;15.98;3.00;;;0.60;99.90;;;;;;5047182;28;20282;-78
2022/01/06 08:58:11;;;;;;;9.75;2.20;;;0.70;99.90;;;;;;5044636;28;20174;-78
2022/01/06 09:00:39;;;;;;;12.90;3.20;;;0.80;99.90;;;;;;5040341;28;20067;-78
2022/01/06 09:03:06;;;;;;;12.50;3.25;;;0.90;99.90;;;;;;5047945;28;20021;-78
2022/01/06 09:05:33;;;;;;;12.82;2.30;;;1.00;99.90;;;;;;5043250;28;20657;-78
2022/01/06 09:07:58;;;;;;;14.55;2.85;;;1.00;99.90;;;;;;5039696;28;20044;-77
2022/01/06 09:10:27;;;;;;;8.27;1.92;;;1.10;99.90;;;;;;5057134;28;20071;-78
2022/01/06 09:12:52;;;;;;;15.02;2.42;;;1.20;99.90;;;;;;5053622;28;20100;-78
2022/01/06 09:15:18;;;;;;;13.40;2.85;;;1.20;99.90;;;;;;5049739;28;20061;-77
2022/01/06 09:17:44;;;;;;;10.05;2.08;;;1.30;99.90;;;;;;5054480;28;20021;-78
2022/01/06 09:20:10;;;;;;;14.40;2.45;;;1.30;99.90;;;;;;5051667;28;20033;-78
2022/01/06 09:22:35;;;;;;;12.60;2.30;;;1.30;99.90;;;;;;5049490;28;20025;-78
2022/01/06 09:25:01;;;;;;;12.55;1.73;;;1.30;99.90;;;;;;5045698;28;20033;-78
2022/01/06 09:27:29;;;;;;;12.70;2.25;;;1.40;99.90;;;;;;5041749;28;20017;-77
2022/01/06 09:29:55;;;;;;;16.02;2.45;;;1.40;99.90;;;;;;5045595;28;20025;-78
2022/01/06 09:32:21;;;;;;;11.93;2.08;;;1.50;99.90;;;;;;5048005;28;20021;-79
2022/01/06 09:34:46;;;;;;;12.27;1.80;;;1.50;99.90;;;;;;5048117;28;20112;-77
2022/01/06 09:37:12;;;;;;;7.75;1.92;;;1.50;99.90;;;;;;5049268;28;20021;-79
2022/01/06 09:39:38;;;;;;;10.95;2.10;;;1.60;99.90;;;;;;5052022;28;20082;-78
2022/01/06 09:42:05;;;;;;;20.98;2.22;;;1.70;99.90;;;;;;5057896;28;20385;-78
2022/01/06 09:44:31;;;;;;;12.23;1.95;;;1.80;99.90;;;;;;5058258;28;20028;-77
2022/01/06 09:46:57;;;;;;;13.30;2.65;;;1.80;99.90;;;;;;5057833;28;20134;-78
2022/01/06 09:49:23;;;;;;;13.00;2.72;;;1.90;99.90;;;;;;5058130;28;20025;-78
2022/01/06 09:51:51;;;;;;;15.57;2.60;;;2.00;99.90;;;;;;5058088;28;20077;-78
2022/01/06 09:54:18;;;;;;;11.02;2.00;;;2.20;99.90;;;;;;5057774;28;20032;-79
2022/01/06 09:56:44;;;;;;;14.48;3.13;;;2.30;99.90;;;;;;5058125;28;20381;-78
2022/01/06 09:59:09;;;;;;;23.83;3.55;;;2.30;99.90;;;;;;5057513;28;20481;-78
2022/01/06 10:01:35;;;;;;;16.75;3.30;;;2.30;99.90;;;;;;5056907;28;20061;-77
2022/01/06 10:04:01;;;;;;;19.67;7.28;;;2.40;99.90;;;;;;5058128;28;20501;-79
2022/01/06 10:06:28;;;;;;;19.83;7.97;;;2.60;99.90;;;;;;5059654;28;20021;-78
2022/01/06 10:08:59;;;;;;;23.75;10.48;;;2.90;99.90;;;;;;5059393;28;20064;-77
2022/01/06 10:11:30;;;;;;;23.75;6.80;;;3.20;99.90;;;;;;5059617;28;20025;-78
2022/01/06 10:14:04;;;;;;;16.38;2.70;;;3.70;99.90;;;;;;5057544;28;20714;-79
2022/01/06 10:16:31;;;;;;;16.85;2.65;;;4.20;99.90;;;;;;5056765;28;20029;-78
2022/01/06 10:19:09;;;;;;;10.77;2.10;;;4.60;99.90;;;;;;5055507;28;20049;-79
2022/01/06 10:21:38;;;;;;;13.48;2.63;;;4.80;99.90;;;;;;5054756;28;20116;-78
2022/01/06 10:24:06;;;;;;;16.80;2.20;;;5.10;99.90;;;;;;5055507;28;20518;-78
2022/01/06 10:26:32;;;;;;;10.77;2.17;;;5.20;99.90;;;;;;5055348;28;20025;-78
2022/01/06 10:28:59;;;;;;;17.80;2.60;;;5.10;99.90;;;;;;5055743;28;20040;-78
2022/01/06 10:31:30;;;;;;;16.35;2.20;;;5.00;99.90;;;;;;5055425;28;20052;-78
2022/01/06 10:33:56;;;;;;;12.75;1.60;;;4.80;99.90;;;;;;5055669;28;20104;-78
2022/01/06 10:36:32;;;;;;;9.75;1.60;;;4.70;99.90;;;;;;5055529;28;20032;-78
2022/01/06 10:39:02;;;;;;;10.32;1.77;;;4.70;99.90;;;;;;5055314;28;20115;-78
2022/01/06 10:41:29;;;;;;;10.70;1.45;;;4.60;99.90;;;;;;5054088;28;20496;-79
2022/01/06 10:43:57;;;;;;;17.58;2.50;;;4.40;99.90;;;;;;5055343;28;20072;-78
2022/01/06 10:46:35;;;;;;;10.77;1.73;;;4.50;99.90;;;;;;5053787;28;20013;-78
2022/01/06 10:49:05;;;;;;;14.38;2.78;;;4.40;99.90;;;;;;5055348;28;20040;-78
2022/01/06 10:51:48;;;;;;;11.10;2.97;;;4.50;99.90;;;;;;5054893;28;20386;-78
2022/01/06 10:54:22;;;;;;;9.88;1.98;;;4.30;99.90;;;;;;5054943;28;20037;-79
2022/01/06 10:56:56;;;;;;;10.60;2.35;;;4.40;99.90;;;;;;5054793;28;20032;-78
2022/01/06 10:59:27;;;;;;;7.38;1.30;;;4.40;99.90;;;;;;5054887;28;20037;-78
2022/01/06 11:01:53;;;;;;;12.10;2.10;;;4.40;99.90;;;;;;5053728;28;20020;-78
2022/01/06 11:04:18;;;;;;;20.33;5.30;;;4.40;99.90;;;;;;5054203;28;20071;-78
2022/01/06 11:06:44;;;;;;;28.15;4.65;;;4.90;99.90;;;;;;5044346;28;20037;-78
2022/01/06 11:09:11;;;;;;;19.27;4.05;;;5.30;99.90;;;;;;5057357;28;20045;-78
2022/01/06 11:14:23;;;;;;;10.90;2.90;;;5.30;99.90;;;;;;5059897;28;20035;-80
2022/01/06 11:16:49;;;;;;;8.60;2.28;;;5.60;99.90;;;;;;5057892;28;20025;-79
2022/01/06 11:19:15;;;;;;;9.45;2.63;;;5.60;99.90;;;;;;5057780;28;20051;-80
2022/01/06 11:21:44;;;;;;;12.43;2.58;;;5.80;99.90;;;;;;5055238;28;20075;-79
2022/01/06 11:24:13;;;;;;;14.07;2.97;;;5.80;99.90;;;;;;5075931;28;20037;-80
2022/01/06 11:26:41;;;;;;;8.30;2.78;;;6.00;99.90;;;;;;5045069;28;20318;-79
2022/01/06 11:29:07;;;;;;;11.50;3.70;;;5.90;99.90;;;;;;5044888;28;20090;-80
2022/01/06 11:31:41;;;;;;;9.10;3.05;;;6.10;99.90;;;;;;5046665;28;20380;-79
2022/01/06 11:34:28;;;;;;;8.52;2.30;;;6.40;99.90;;;;;;5043967;28;20037;-80
2022/01/06 11:36:55;;;;;;;5.45;1.00;;;6.60;7.60;;;;;;5038742;28;20108;-79
2022/01/06 11:39:29;;;;;;;5.60;1.63;;;6.40;1.00;;;;;;5049206;28;20057;-79
2022/01/06 11:41:57;;;;;;;9.40;1.10;;;6.30;1.00;;;;;;5042108;28;20018;-79
2022/01/06 11:44:32;;;;;;;8.10;1.00;;;6.30;99.90;;;;;;5037373;28;20029;-80
2022/01/06 11:47:00;;;;;;;3.90;0.82;;;6.30;99.90;;;;;;5043670;28;20026;-79
2022/01/06 11:49:42;;;;;;;3.40;0.65;;;6.20;99.90;;;;;;5050014;28;20029;-80
2022/01/06 11:52:15;;;;;;;5.85;1.10;;;6.20;99.90;;;;;;5039535;28;20017;-79
2022/01/06 11:54:53;;;;;;;7.28;0.60;;;6.20;99.90;;;;;;5045718;28;20029;-79
2022/01/06 11:57:37;;;;;;;4.20;0.85;;;6.10;99.90;;;;;;5042368;28;20033;-79
2022/01/06 12:00:19;;;;;;;4.50;0.68;;;6.10;99.90;;;;;;5035568;28;20034;-79
2022/01/06 12:02:58;;;;;;;2.95;0.63;;;6.10;99.90;;;;;;5047789;28;20021;-79
2022/01/06 12:05:24;;;;;;;7.25;1.17;;;6.20;99.90;;;;;;5053710;28;20333;-79
2022/01/06 12:07:52;;;;;;;4.63;0.80;;;6.10;99.90;;;;;;5053461;28;20041;-78
2022/01/06 12:10:20;;;;;;;5.82;0.63;;;6.10;99.90;;;;;;5052452;28;20060;-79
2022/01/06 12:12:47;;;;;;;5.10;1.50;;;6.10;99.90;;;;;;5052239;28;20090;-79
2022/01/06 12:15:15;;;;;;;4.32;1.05;;;6.10;99.90;;;;;;5052124;28;20381;-81
2022/01/06 12:17:45;;;;;;;8.23;1.00;;;6.10;99.90;;;;;;5054882;28;20104;-81
2022/01/06 12:20:16;;;;;;;11.32;1.10;;;6.00;99.90;;;;;;5054904;28;20025;-80
2022/01/06 12:22:43;;;;;;;6.05;0.93;;;5.90;99.90;;;;;;5052474;28;20033;-81
2022/01/06 12:25:09;;;;;;;8.27;1.23;;;5.80;99.90;;;;;;5051767;28;20068;-81
2022/01/06 12:27:44;;;;;;;7.07;1.50;;;5.80;99.90;;;;;;5038727;28;20473;-81
2022/01/06 12:30:11;;;;;;;8.25;1.75;;;5.80;99.90;;;;;;5053589;28;20393;-81
2022/01/06 12:32:36;;;;;;;7.10;1.02;;;5.80;99.90;;;;;;5052295;28;20056;-81
2022/01/06 12:35:02;;;;;;;12.48;2.10;;;5.80;99.90;;;;;;5052378;28;20032;-81
2022/01/06 12:37:29;;;;;;;6.05;1.05;;;5.80;99.90;;;;;;5052960;28;20035;-81
2022/01/06 12:39:56;;;;;;;9.27;1.58;;;5.80;99.90;;;;;;5053097;28;20163;-80
2022/01/06 12:42:22;;;;;;;5.28;0.80;;;5.80;99.90;;;;;;5051745;28;20437;-81
2022/01/06 12:44:48;;;;;;;6.50;0.80;;;5.80;99.90;;;;;;5053145;28;20086;-81
2022/01/06 12:47:14;;;;;;;4.88;1.00;;;5.80;99.90;;;;;;5053461;28;20040;-81
2022/01/06 12:49:40;;;;;;;5.90;1.00;;;5.80;99.90;;;;;;5054610;28;20032;-81
2022/01/06 12:52:06;;;;;;;7.03;1.10;;;5.80;99.90;;;;;;5053274;28;20108;-83
2022/01/06 12:54:34;;;;;;;7.45;1.10;;;5.90;99.90;;;;;;5054382;28;20033;-79
2022/01/06 12:57:02;;;;;;;7.25;1.20;;;5.80;99.90;;;;;;5054147;28;20078;-79
2022/01/06 12:59:36;;;;;;;6.95;0.90;;;5.80;99.90;;;;;;5054495;28;20550;-79
2022/01/06 13:02:05;;;;;;;4.82;0.77;;;5.70;99.90;;;;;;5054663;28;20488;-79
2022/01/06 13:04:32;;;;;;;3.80;0.70;;;5.50;99.90;;;;;;5052732;28;20033;-79
2022/01/06 13:07:00;;;;;;;7.20;1.13;;;5.40;99.90;;;;;;5052243;28;20492;-79
2022/01/06 13:09:30;;;;;;;7.28;1.48;;;5.40;99.90;;;;;;5051370;28;20048;-79